Time;durP1;ratioP1;P1;durP2;ratioP2;P2;SDS_P1;SDS_P2;PMS_P1;PMS_P2;Temp;Humidity;BMP_temperature;BMP_pressure;BME280_temperature;BME280_humidity;BME280_pressure;Samples;Min_cycle;Max_cycle;Signal;HPM_P1;HPM_P2
2023/06/22 00:02:24;;;;;;;;;;;24.10;68.60;;;;;;5110763;28;19935;-70
2023/06/22 00:04:50;;;;;;;;;;;24.10;68.70;;;;;;5109156;28;19920;-71
2023/06/22 00:07:15;;;;;;;;;;;24.00;68.70;;;;;;5110505;28;19908;-71
2023/06/22 00:09:41;;;;;;;;;;;24.00;68.70;;;;;;5106931;28;19960;-71
2023/06/22 00:12:06;;;;;;;;;;;24.00;68.80;;;;;;5109400;28;19965;-71
2023/06/22 00:14:32;;;;;;;;;;;24.00;68.70;;;;;;5110539;28;19915;-70
2023/06/22 00:16:58;;;;;;;;;;;23.90;68.70;;;;;;5110333;28;19912;-71
2023/06/22 00:19:24;;;;;;;;;;;23.90;68.70;;;;;;5109437;28;20459;-70
2023/06/22 00:21:52;;;;;;;;;;;23.90;68.60;;;;;;5114318;27;20018;-71
2023/06/22 00:24:21;;;;;;;;;;;23.90;68.90;;;;;;5110678;28;20696;-70
2023/06/22 00:26:48;;;;;;;;;;;23.90;69.00;;;;;;5110021;28;19912;-70
2023/06/22 00:29:13;;;;;;;;;;;23.80;69.00;;;;;;5108943;28;20003;-70
2023/06/22 00:31:39;;;;;;;;;;;23.80;69.00;;;;;;5110025;28;19987;-71
2023/06/22 00:34:08;;;;;;;;;;;23.80;69.10;;;;;;5110242;28;20330;-70
2023/06/22 00:36:34;;;;;;;;;;;23.80;69.00;;;;;;5109913;28;19919;-70
2023/06/22 00:38:59;;;;;;;;;;;23.70;69.10;;;;;;5108678;28;19912;-71
2023/06/22 00:41:28;;;;;;;;;;;23.70;69.00;;;;;;5109544;28;20718;-71
2023/06/22 00:43:54;;;;;;;;;;;23.70;69.20;;;;;;5110107;28;20265;-70
2023/06/22 00:46:19;;;;;;;;;;;23.70;69.20;;;;;;5109594;28;19964;-70
2023/06/22 00:48:45;;;;;;;;;;;23.60;69.20;;;;;;5108711;28;20268;-71
2023/06/22 00:51:10;;;;;;;;;;;23.60;69.30;;;;;;5108627;28;20380;-70
2023/06/22 00:53:37;;;;;;;;;;;23.60;69.20;;;;;;5110142;28;19954;-71
2023/06/22 00:56:03;;;;;;;;;;;23.60;69.40;;;;;;5109463;28;19941;-71
2023/06/22 00:58:29;;;;;;;;;;;23.60;69.50;;;;;;5109562;28;19912;-70
2023/06/22 01:00:54;;;;;;;;;;;23.50;69.30;;;;;;5109447;28;19940;-71
2023/06/22 01:03:20;;;;;;;;;;;23.50;69.30;;;;;;5109692;28;20285;-71
2023/06/22 01:05:46;;;;;;;;;;;23.40;69.40;;;;;;5109131;28;19915;-71
2023/06/22 01:08:12;;;;;;;;;;;23.50;69.60;;;;;;5109494;28;19984;-70
2023/06/22 01:10:46;;;;;;;;;;;23.50;69.60;;;;;;5108915;28;20546;-71
2023/06/22 01:13:35;;;;;;;;;;;23.40;69.70;;;;;;5109650;28;19957;-70
2023/06/22 01:16:13;;;;;;;;;;;23.40;69.50;;;;;;5103107;28;20658;-71
2023/06/22 01:18:41;;;;;;;;;;;23.40;69.70;;;;;;5109675;28;19977;-71
2023/06/22 01:21:08;;;;;;;;;;;23.40;69.80;;;;;;5113364;27;19957;-71
2023/06/22 01:23:39;;;;;;;;;;;23.40;69.90;;;;;;5109283;28;19920;-70
2023/06/22 01:26:05;;;;;;;;;;;23.30;69.90;;;;;;5109043;28;19964;-71
2023/06/22 01:28:41;;;;;;;;;;;23.30;69.90;;;;;;5109638;28;19912;-70
2023/06/22 01:31:08;;;;;;;;;;;23.30;69.80;;;;;;5109125;28;19937;-70
2023/06/22 01:33:36;;;;;;;;;;;23.30;70.00;;;;;;5093070;28;19912;-70
2023/06/22 01:36:02;;;;;;;;;;;23.30;70.00;;;;;;5101562;28;19923;-70
2023/06/22 01:38:29;;;;;;;;;;;23.20;69.90;;;;;;5108044;28;19908;-70
2023/06/22 01:40:56;;;;;;;;;;;23.20;70.00;;;;;;5107126;28;19912;-70
2023/06/22 01:43:23;;;;;;;;;;;23.20;69.80;;;;;;5107956;28;20535;-70
2023/06/22 01:45:48;;;;;;;;;;;23.20;70.10;;;;;;5107173;28;20364;-70
2023/06/22 01:48:14;;;;;;;;;;;23.10;70.20;;;;;;5109322;28;19911;-71
2023/06/22 01:50:40;;;;;;;;;;;23.10;70.20;;;;;;5109105;28;19941;-70
2023/06/22 01:53:06;;;;;;;;;;;23.10;70.30;;;;;;5109135;28;20383;-70
2023/06/22 01:55:32;;;;;;;;;;;23.10;70.40;;;;;;5108676;28;19908;-70
2023/06/22 01:57:57;;;;;;;;;;;23.10;70.30;;;;;;5109502;28;20400;-70
2023/06/22 02:00:25;;;;;;;;;;;23.10;70.40;;;;;;5109027;28;19988;-70
2023/06/22 02:02:56;;;;;;;;;;;23.10;70.30;;;;;;5107554;28;19964;-71
2023/06/22 02:05:23;;;;;;;;;;;23.10;70.40;;;;;;5108424;28;20513;-71
2023/06/22 02:08:02;;;;;;;;;;;23.10;70.40;;;;;;5108957;28;20438;-71
2023/06/22 02:10:28;;;;;;;;;;;23.00;70.50;;;;;;5108933;28;20330;-71
2023/06/22 02:12:54;;;;;;;;;;;23.00;70.60;;;;;;5109201;28;19995;-70
2023/06/22 02:15:20;;;;;;;;;;;23.00;70.60;;;;;;5108568;28;20061;-70
2023/06/22 02:17:46;;;;;;;;;;;23.00;70.80;;;;;;5108931;28;20272;-70
2023/06/22 02:20:13;;;;;;;;;;;23.00;70.70;;;;;;5105407;28;19912;-70
2023/06/22 02:22:38;;;;;;;;;;;23.00;70.80;;;;;;5113172;28;20019;-71
2023/06/22 02:25:04;;;;;;;;;;;22.90;70.90;;;;;;5112612;28;20626;-70
2023/06/22 02:27:29;;;;;;;;;;;22.90;70.90;;;;;;5112726;28;19927;-70
2023/06/22 02:29:55;;;;;;;;;;;22.90;71.00;;;;;;5112678;28;19916;-70
2023/06/22 02:32:20;;;;;;;;;;;22.90;71.00;;;;;;5112522;28;20376;-70
2023/06/22 02:34:47;;;;;;;;;;;22.80;70.90;;;;;;5112546;28;20007;-71
2023/06/22 02:37:14;;;;;;;;;;;22.80;70.80;;;;;;5112200;28;20383;-71
2023/06/22 02:39:40;;;;;;;;;;;22.80;71.10;;;;;;5110690;28;19969;-71
2023/06/22 02:42:05;;;;;;;;;;;22.80;71.10;;;;;;5111977;28;20337;-70
2023/06/22 02:44:31;;;;;;;;;;;22.80;71.10;;;;;;5112196;28;20582;-70
2023/06/22 02:46:57;;;;;;;;;;;22.80;71.30;;;;;;5112008;28;19912;-70
2023/06/22 02:49:22;;;;;;;;;;;22.70;71.30;;;;;;5112368;28;19907;-70
2023/06/22 02:51:48;;;;;;;;;;;22.70;71.30;;;;;;5112035;28;19958;-70
2023/06/22 02:54:14;;;;;;;;;;;22.70;71.30;;;;;;5112057;28;19935;-71
2023/06/22 02:56:40;;;;;;;;;;;22.70;71.40;;;;;;5111747;28;19912;-70
2023/06/22 02:59:06;;;;;;;;;;;22.70;71.50;;;;;;5112114;28;19908;-70
2023/06/22 03:01:39;;;;;;;;;;;22.70;71.50;;;;;;5111763;28;19916;-71
2023/06/22 03:04:08;;;;;;;;;;;22.70;71.50;;;;;;5095443;28;20420;-71
2023/06/22 03:06:34;;;;;;;;;;;22.60;71.60;;;;;;5111490;28;20368;-70
2023/06/22 03:09:00;;;;;;;;;;;22.60;71.50;;;;;;5110425;28;19918;-70
2023/06/22 03:11:26;;;;;;;;;;;22.60;71.70;;;;;;5111722;28;19914;-70
2023/06/22 03:13:52;;;;;;;;;;;22.60;71.60;;;;;;5111927;28;19915;-70
2023/06/22 03:16:18;;;;;;;;;;;22.60;71.40;;;;;;5111167;28;19957;-70
2023/06/22 03:18:44;;;;;;;;;;;22.60;71.80;;;;;;5110616;28;19915;-70
2023/06/22 03:21:09;;;;;;;;;;;22.50;71.80;;;;;;5111529;28;20332;-71
2023/06/22 03:23:35;;;;;;;;;;;22.50;71.80;;;;;;5111540;28;20345;-70
2023/06/22 03:26:01;;;;;;;;;;;22.50;71.70;;;;;;5109804;28;19908;-70
2023/06/22 03:28:26;;;;;;;;;;;22.50;72.00;;;;;;5111809;28;19960;-70
2023/06/22 03:30:52;;;;;;;;;;;22.50;72.00;;;;;;5111018;28;20370;-70
2023/06/22 03:33:17;;;;;;;;;;;22.50;72.00;;;;;;5110613;28;19957;-70
2023/06/22 03:35:43;;;;;;;;;;;22.40;72.10;;;;;;5110718;28;19945;-70
2023/06/22 03:38:08;;;;;;;;;;;22.40;72.00;;;;;;5110293;28;20276;-71
2023/06/22 03:40:34;;;;;;;;;;;22.40;72.10;;;;;;5107898;28;19916;-70
2023/06/22 03:42:59;;;;;;;;;;;22.40;72.20;;;;;;5111154;28;19915;-70
2023/06/22 03:45:25;;;;;;;;;;;22.40;72.40;;;;;;5110691;28;19920;-70
2023/06/22 03:47:50;;;;;;;;;;;22.40;72.20;;;;;;5111218;28;19951;-70
2023/06/22 03:50:16;;;;;;;;;;;22.30;72.30;;;;;;5111113;28;20051;-71
2023/06/22 03:52:41;;;;;;;;;;;22.30;72.40;;;;;;5111100;28;20383;-70
2023/06/22 03:55:07;;;;;;;;;;;22.30;72.30;;;;;;5110885;28;19911;-70
2023/06/22 03:57:33;;;;;;;;;;;22.30;72.40;;;;;;5110880;27;19972;-70
2023/06/22 03:59:59;;;;;;;;;;;22.30;72.50;;;;;;5111115;28;20407;-70
2023/06/22 04:02:24;;;;;;;;;;;22.30;72.40;;;;;;5111158;28;20292;-70
2023/06/22 04:04:50;;;;;;;;;;;22.30;72.50;;;;;;5110741;28;19998;-70
2023/06/22 04:07:15;;;;;;;;;;;22.30;72.50;;;;;;5110757;28;19954;-70
2023/06/22 04:09:41;;;;;;;;;;;22.20;72.40;;;;;;5110751;28;19936;-70
2023/06/22 04:12:06;;;;;;;;;;;22.30;72.70;;;;;;5110666;28;20379;-70
2023/06/22 04:14:32;;;;;;;;;;;22.20;72.80;;;;;;5110669;28;19914;-70
2023/06/22 04:16:58;;;;;;;;;;;22.20;72.60;;;;;;5110248;28;19916;-70
2023/06/22 04:19:23;;;;;;;;;;;22.30;72.60;;;;;;5110734;28;19912;-70
2023/06/22 04:21:49;;;;;;;;;;;22.20;72.80;;;;;;5112760;27;19907;-70
2023/06/22 04:24:14;;;;;;;;;;;22.20;72.80;;;;;;5110148;28;19969;-71
2023/06/22 04:26:41;;;;;;;;;;;22.20;72.80;;;;;;5110753;27;19920;-70
2023/06/22 04:29:08;;;;;;;;;;;22.20;72.80;;;;;;5110336;28;19919;-70
2023/06/22 04:31:36;;;;;;;;;;;22.20;73.00;;;;;;5108796;28;20368;-70
2023/06/22 04:34:06;;;;;;;;;;;22.20;73.00;;;;;;5109012;28;19911;-70
2023/06/22 04:36:41;;;;;;;;;;;22.20;73.00;;;;;;5109806;28;19912;-70
2023/06/22 04:39:10;;;;;;;;;;;22.20;73.10;;;;;;5108652;28;19974;-70
2023/06/22 04:41:41;;;;;;;;;;;22.20;73.20;;;;;;5109416;28;19912;-70
2023/06/22 04:44:26;;;;;;;;;;;22.20;73.20;;;;;;5109981;28;19969;-70
2023/06/22 04:47:03;;;;;;;;;;;22.20;73.20;;;;;;5109159;28;20560;-70
2023/06/22 04:49:32;;;;;;;;;;;22.20;73.40;;;;;;5110130;28;19919;-70
2023/06/22 04:51:58;;;;;;;;;;;22.20;73.40;;;;;;5109279;28;20364;-70
2023/06/22 04:54:23;;;;;;;;;;;22.20;73.40;;;;;;5109863;27;19918;-70
2023/06/22 04:56:56;;;;;;;;;;;22.20;73.30;;;;;;5109439;28;20004;-70
2023/06/22 04:59:27;;;;;;;;;;;22.20;73.40;;;;;;5108203;28;19948;-70
2023/06/22 05:01:54;;;;;;;;;;;22.20;73.50;;;;;;5109844;28;20623;-70
2023/06/22 05:04:19;;;;;;;;;;;22.20;73.50;;;;;;5109440;28;19920;-70
2023/06/22 05:06:45;;;;;;;;;;;22.20;73.50;;;;;;5109195;28;20307;-70
2023/06/22 05:09:11;;;;;;;;;;;22.20;73.60;;;;;;5109761;28;19907;-70
2023/06/22 05:11:37;;;;;;;;;;;22.20;73.50;;;;;;5109361;28;19912;-70
2023/06/22 05:14:03;;;;;;;;;;;22.20;73.70;;;;;;5109589;28;19918;-70
2023/06/22 05:16:28;;;;;;;;;;;22.20;73.60;;;;;;5108994;28;19911;-70
2023/06/22 05:18:54;;;;;;;;;;;22.20;73.70;;;;;;5109545;28;20579;-70
2023/06/22 05:21:24;;;;;;;;;;;22.20;73.70;;;;;;5113155;27;19912;-70
2023/06/22 05:23:50;;;;;;;;;;;22.20;73.70;;;;;;5109400;28;19965;-70
2023/06/22 05:26:15;;;;;;;;;;;22.20;73.70;;;;;;5107609;28;19911;-70
2023/06/22 05:28:41;;;;;;;;;;;22.20;73.70;;;;;;5109443;28;20501;-71
2023/06/22 05:31:06;;;;;;;;;;;22.20;73.80;;;;;;5109317;28;19965;-70
2023/06/22 05:33:32;;;;;;;;;;;22.20;73.80;;;;;;5109808;28;19919;-70
2023/06/22 05:35:58;;;;;;;;;;;22.20;74.00;;;;;;5108902;28;19940;-70
2023/06/22 05:38:23;;;;;;;;;;;22.20;74.10;;;;;;5107953;28;20370;-70
2023/06/22 05:40:48;;;;;;;;;;;22.20;74.00;;;;;;5106983;28;19911;-70
2023/06/22 05:43:14;;;;;;;;;;;22.20;74.10;;;;;;5109292;28;19973;-70
2023/06/22 05:45:40;;;;;;;;;;;22.20;74.10;;;;;;5108629;28;20524;-70
2023/06/22 05:48:05;;;;;;;;;;;22.20;74.10;;;;;;5109192;28;19998;-70
2023/06/22 05:50:31;;;;;;;;;;;22.20;74.10;;;;;;5110940;28;20537;-70
2023/06/22 05:52:56;;;;;;;;;;;22.20;74.30;;;;;;5110911;27;20350;-70
2023/06/22 05:55:22;;;;;;;;;;;22.20;74.30;;;;;;5107141;28;19908;-70
2023/06/22 05:57:47;;;;;;;;;;;22.20;74.20;;;;;;5112572;28;20636;-71
2023/06/22 06:00:14;;;;;;;;;;;22.20;74.30;;;;;;5113174;28;19955;-70
2023/06/22 06:02:43;;;;;;;;;;;22.20;74.30;;;;;;5113181;28;20408;-70
2023/06/22 06:05:10;;;;;;;;;;;22.30;74.50;;;;;;5112864;28;20006;-70
2023/06/22 06:07:37;;;;;;;;;;;22.30;74.50;;;;;;5113045;28;19912;-70
2023/06/22 06:10:04;;;;;;;;;;;22.30;74.60;;;;;;5112832;28;19912;-71
2023/06/22 06:12:30;;;;;;;;;;;22.30;74.50;;;;;;5111610;28;20213;-70
2023/06/22 06:14:56;;;;;;;;;;;22.30;74.40;;;;;;5111421;28;19912;-70
2023/06/22 06:17:22;;;;;;;;;;;22.30;74.50;;;;;;5111299;28;19916;-71
2023/06/22 06:19:47;;;;;;;;;;;22.30;74.60;;;;;;5114031;27;20241;-70
2023/06/22 06:22:13;;;;;;;;;;;22.30;74.60;;;;;;5119230;27;19918;-70
2023/06/22 06:24:38;;;;;;;;;;;22.30;74.60;;;;;;5112838;28;19919;-71
2023/06/22 06:27:04;;;;;;;;;;;22.40;74.70;;;;;;5112467;28;20592;-71
2023/06/22 06:29:30;;;;;;;;;;;22.40;74.60;;;;;;5111470;28;19927;-70
2023/06/22 06:31:56;;;;;;;;;;;22.40;74.60;;;;;;5112650;28;19911;-70
2023/06/22 06:34:22;;;;;;;;;;;22.40;74.70;;;;;;5112912;28;19950;-70
2023/06/22 06:36:47;;;;;;;;;;;22.40;74.70;;;;;;5110853;28;20284;-70
2023/06/22 06:39:13;;;;;;;;;;;22.40;74.60;;;;;;5112175;28;20006;-71
2023/06/22 06:41:38;;;;;;;;;;;22.40;74.70;;;;;;5111920;27;19915;-70
2023/06/22 06:44:04;;;;;;;;;;;22.40;74.70;;;;;;5110911;28;20010;-70
2023/06/22 06:46:29;;;;;;;;;;;22.40;74.70;;;;;;5111980;28;19919;-70
2023/06/22 06:48:55;;;;;;;;;;;22.50;74.70;;;;;;5111723;28;20007;-71
2023/06/22 06:51:20;;;;;;;;;;;22.60;74.60;;;;;;5111414;28;19919;-71
2023/06/22 06:53:46;;;;;;;;;;;22.60;74.70;;;;;;5111550;28;19930;-71
2023/06/22 06:56:12;;;;;;;;;;;22.60;74.70;;;;;;5110600;28;19943;-71
2023/06/22 06:58:40;;;;;;;;;;;22.60;74.80;;;;;;5111572;28;19960;-71
2023/06/22 07:01:06;;;;;;;;;;;22.60;74.80;;;;;;5111923;27;19912;-70
2023/06/22 07:03:33;;;;;;;;;;;22.60;74.90;;;;;;5112122;28;19915;-71
2023/06/22 07:05:58;;;;;;;;;;;22.70;74.80;;;;;;5111633;28;19916;-71
2023/06/22 07:08:24;;;;;;;;;;;22.70;74.70;;;;;;5110945;28;19926;-71
2023/06/22 07:10:49;;;;;;;;;;;22.70;74.70;;;;;;5111890;28;20057;-71
2023/06/22 07:13:15;;;;;;;;;;;22.70;74.90;;;;;;5111856;28;19951;-70
2023/06/22 07:15:40;;;;;;;;;;;22.70;74.70;;;;;;5111331;28;19993;-71
2023/06/22 07:18:06;;;;;;;;;;;22.70;74.90;;;;;;5111819;28;19930;-71
2023/06/22 07:20:32;;;;;;;;;;;22.70;74.90;;;;;;5111524;28;20397;-71
2023/06/22 07:22:58;;;;;;;;;;;22.70;74.80;;;;;;5111471;28;19927;-71
2023/06/22 07:25:23;;;;;;;;;;;22.70;74.90;;;;;;5109632;28;19938;-71
2023/06/22 07:28:02;;;;;;;;;;;22.70;74.90;;;;;;5111538;28;20411;-71
2023/06/22 07:30:28;;;;;;;;;;;22.70;74.90;;;;;;5111248;28;19919;-71
2023/06/22 07:32:54;;;;;;;;;;;22.70;74.90;;;;;;5111397;28;19957;-70
2023/06/22 07:35:20;;;;;;;;;;;22.70;74.90;;;;;;5111058;28;19916;-70
2023/06/22 07:37:45;;;;;;;;;;;22.70;74.80;;;;;;5109829;28;19944;-71
2023/06/22 07:40:11;;;;;;;;;;;22.70;74.80;;;;;;5108797;28;19934;-71
2023/06/22 07:42:36;;;;;;;;;;;22.70;74.90;;;;;;5111111;28;19908;-70
2023/06/22 07:45:07;;;;;;;;;;;22.70;75.30;;;;;;5110951;28;20368;-70
2023/06/22 07:47:35;;;;;;;;;;;22.70;75.10;;;;;;5110983;28;19919;-70
2023/06/22 07:50:01;;;;;;;;;;;22.70;75.30;;;;;;5111103;27;19919;-70
2023/06/22 07:52:30;;;;;;;;;;;22.80;75.50;;;;;;5114837;27;19922;-70
2023/06/22 07:54:56;;;;;;;;;;;22.80;75.50;;;;;;5110931;28;19911;-70
2023/06/22 07:57:21;;;;;;;;;;;22.80;75.70;;;;;;5110861;28;19911;-69
2023/06/22 07:59:47;;;;;;;;;;;22.80;76.00;;;;;;5110911;28;20473;-70
2023/06/22 08:02:12;;;;;;;;;;;22.80;76.20;;;;;;5110746;28;19911;-70
2023/06/22 08:04:38;;;;;;;;;;;22.80;76.40;;;;;;5111038;28;19919;-70
2023/06/22 08:07:04;;;;;;;;;;;22.80;76.80;;;;;;5110612;28;19919;-70
2023/06/22 08:09:32;;;;;;;;;;;22.80;76.60;;;;;;5110579;28;19908;-70
2023/06/22 08:11:58;;;;;;;;;;;22.80;76.50;;;;;;5110483;28;19939;-70
2023/06/22 08:14:25;;;;;;;;;;;22.80;76.70;;;;;;5113298;27;19947;-70
2023/06/22 08:16:50;;;;;;;;;;;22.80;77.10;;;;;;5130725;27;19958;-70
2023/06/22 08:19:16;;;;;;;;;;;22.80;77.00;;;;;;5131092;27;19907;-70
2023/06/22 08:21:41;;;;;;;;;;;22.80;77.10;;;;;;5122784;27;19908;-69
2023/06/22 08:24:07;;;;;;;;;;;22.80;77.10;;;;;;5110222;28;19916;-69
2023/06/22 08:26:35;;;;;;;;;;;22.80;77.10;;;;;;5109817;28;19915;-69
2023/06/22 08:29:02;;;;;;;;;;;22.80;77.00;;;;;;5110368;28;19919;-69
2023/06/22 08:31:27;;;;;;;;;;;22.80;77.00;;;;;;5110032;28;19927;-69
2023/06/22 08:33:53;;;;;;;;;;;22.80;77.10;;;;;;5110274;28;19918;-69
2023/06/22 08:36:18;;;;;;;;;;;22.80;77.20;;;;;;5108526;28;20350;-69
2023/06/22 08:38:44;;;;;;;;;;;22.90;77.30;;;;;;5109721;28;19908;-69
2023/06/22 08:41:10;;;;;;;;;;;22.90;77.90;;;;;;5108735;28;19916;-69
2023/06/22 08:43:36;;;;;;;;;;;23.00;78.00;;;;;;5110102;28;19912;-69
2023/06/22 08:46:02;;;;;;;;;;;23.00;78.00;;;;;;5109463;28;19915;-69
2023/06/22 08:48:28;;;;;;;;;;;23.00;77.90;;;;;;5108724;28;19972;-69
2023/06/22 08:50:53;;;;;;;;;;;23.00;77.90;;;;;;5109660;28;19911;-69
2023/06/22 08:53:19;;;;;;;;;;;23.00;78.10;;;;;;5108452;28;19911;-69
2023/06/22 08:55:45;;;;;;;;;;;23.00;78.10;;;;;;5109397;28;19918;-69
2023/06/22 08:58:10;;;;;;;;;;;23.10;78.20;;;;;;5109659;28;19918;-69
2023/06/22 09:00:37;;;;;;;;;;;23.10;78.10;;;;;;5109428;28;19912;-69
2023/06/22 09:03:02;;;;;;;;;;;23.10;78.10;;;;;;5109894;28;19955;-70
2023/06/22 09:05:28;;;;;;;;;;;23.10;77.90;;;;;;5109023;28;19974;-69
2023/06/22 09:07:55;;;;;;;;;;;23.10;78.10;;;;;;5108306;28;19911;-69
2023/06/22 09:10:21;;;;;;;;;;;23.20;78.30;;;;;;5109090;28;20321;-69
2023/06/22 09:12:46;;;;;;;;;;;23.20;78.10;;;;;;5109492;28;19912;-70
2023/06/22 09:15:12;;;;;;;;;;;23.20;78.10;;;;;;5109186;28;19912;-69
2023/06/22 09:17:37;;;;;;;;;;;23.30;78.30;;;;;;5109269;28;19919;-70
2023/06/22 09:20:05;;;;;;;;;;;23.40;78.20;;;;;;5109487;28;20621;-70
2023/06/22 09:22:31;;;;;;;;;;;23.40;78.20;;;;;;5109128;28;19969;-70
2023/06/22 09:24:57;;;;;;;;;;;23.50;77.80;;;;;;5109305;28;19919;-70
2023/06/22 09:27:23;;;;;;;;;;;23.60;78.30;;;;;;5107629;28;20581;-70
2023/06/22 09:29:49;;;;;;;;;;;23.70;78.20;;;;;;5108970;28;19920;-70
2023/06/22 09:32:15;;;;;;;;;;;23.80;78.00;;;;;;5108804;28;19958;-70
2023/06/22 09:34:41;;;;;;;;;;;23.80;77.20;;;;;;5109116;28;19947;-70
2023/06/22 09:37:06;;;;;;;;;;;24.00;77.40;;;;;;5109019;28;19908;-70
2023/06/22 09:39:32;;;;;;;;;;;24.10;76.70;;;;;;5108662;28;19908;-71
2023/06/22 09:42:00;;;;;;;;;;;24.30;77.00;;;;;;5108950;28;20574;-72
2023/06/22 09:44:26;;;;;;;;;;;24.30;76.20;;;;;;5107556;28;19939;-70
2023/06/22 09:46:51;;;;;;;;;;;24.40;76.20;;;;;;5103254;28;20238;-70
2023/06/22 09:49:17;;;;;;;;;;;24.50;75.90;;;;;;5109064;28;19922;-70
2023/06/22 09:51:42;;;;;;;;;;;24.60;75.40;;;;;;5112694;28;19908;-71
2023/06/22 09:54:08;;;;;;;;;;;24.60;75.70;;;;;;5107707;28;19915;-71
2023/06/22 09:56:33;;;;;;;;;;;24.70;75.20;;;;;;5108586;28;19986;-71
2023/06/22 09:58:59;;;;;;;;;;;24.80;75.30;;;;;;5109101;28;19911;-71
2023/06/22 10:01:24;;;;;;;;;;;24.80;74.40;;;;;;5108607;28;20305;-71
2023/06/22 10:03:56;;;;;;;;;;;24.90;74.90;;;;;;5108751;28;19972;-71
2023/06/22 10:06:22;;;;;;;;;;;24.90;74.90;;;;;;5108646;28;19942;-71
2023/06/22 10:08:48;;;;;;;;;;;25.00;74.60;;;;;;5107893;28;20347;-71
2023/06/22 10:11:14;;;;;;;;;;;25.00;74.60;;;;;;5110819;28;19974;-71
2023/06/22 10:13:39;;;;;;;;;;;25.10;74.30;;;;;;5129505;27;20348;-71
2023/06/22 10:16:05;;;;;;;;;;;25.20;73.90;;;;;;5128832;27;19925;-71
2023/06/22 10:18:30;;;;;;;;;;;25.20;73.70;;;;;;5129354;27;19926;-71
2023/06/22 10:20:56;;;;;;;;;;;25.30;73.90;;;;;;5127505;27;19926;-71
2023/06/22 10:23:21;;;;;;;;;;;25.30;73.60;;;;;;5108647;28;19922;-71
2023/06/22 10:25:47;;;;;;;;;;;25.40;73.60;;;;;;5108077;28;19919;-71
2023/06/22 10:28:12;;;;;;;;;;;25.40;73.50;;;;;;5108660;28;19908;-71
2023/06/22 10:30:41;;;;;;;;;;;25.50;73.30;;;;;;5108394;28;19944;-71
2023/06/22 10:33:07;;;;;;;;;;;25.60;73.40;;;;;;5108690;28;19919;-71
2023/06/22 10:35:33;;;;;;;;;;;25.60;73.20;;;;;;5108298;28;19916;-71
2023/06/22 10:37:59;;;;;;;;;;;25.70;73.10;;;;;;5108688;28;19922;-71
2023/06/22 10:40:25;;;;;;;;;;;25.70;73.30;;;;;;5106524;28;19918;-71
2023/06/22 10:42:50;;;;;;;;;;;25.80;72.80;;;;;;5108400;28;19912;-71
2023/06/22 10:45:16;;;;;;;;;;;25.80;73.30;;;;;;5105282;28;20353;-71
2023/06/22 10:47:42;;;;;;;;;;;25.90;73.20;;;;;;5110588;28;19912;-71
2023/06/22 10:50:07;;;;;;;;;;;26.00;72.60;;;;;;5112133;28;19912;-71
2023/06/22 10:52:33;;;;;;;;;;;26.00;72.50;;;;;;5115946;27;20381;-71
2023/06/22 10:54:59;;;;;;;;;;;26.10;73.00;;;;;;5112005;28;20407;-71
2023/06/22 10:57:24;;;;;;;;;;;26.10;72.60;;;;;;5111777;28;19916;-71
2023/06/22 10:59:50;;;;;;;;;;;26.10;72.70;;;;;;5110423;28;19931;-71
2023/06/22 11:02:15;;;;;;;;;;;26.10;72.70;;;;;;5112013;28;19912;-71
2023/06/22 11:04:41;;;;;;;;;;;26.00;72.80;;;;;;5111724;28;19911;-71
2023/06/22 11:07:06;;;;;;;;;;;26.00;73.00;;;;;;5110342;28;19998;-71
2023/06/22 11:09:32;;;;;;;;;;;26.00;73.30;;;;;;5111791;28;19915;-71
2023/06/22 11:11:58;;;;;;;;;;;25.90;73.20;;;;;;5110426;28;19916;-71
2023/06/22 11:14:24;;;;;;;;;;;25.90;73.40;;;;;;5110174;28;20253;-71
2023/06/22 11:16:50;;;;;;;;;;;25.90;73.50;;;;;;5111191;28;19919;-70
2023/06/22 11:19:15;;;;;;;;;;;25.80;73.70;;;;;;5111247;28;19957;-70
2023/06/22 11:21:41;;;;;;;;;;;25.80;73.90;;;;;;5111327;28;20002;-70
2023/06/22 11:24:06;;;;;;;;;;;25.70;74.00;;;;;;5111326;28;20003;-70
2023/06/22 11:26:32;;;;;;;;;;;25.60;74.20;;;;;;5111262;28;19930;-70
2023/06/22 11:28:58;;;;;;;;;;;25.60;74.30;;;;;;5111388;28;20023;-70
2023/06/22 11:31:24;;;;;;;;;;;25.60;74.70;;;;;;5111161;28;20355;-70
2023/06/22 11:33:49;;;;;;;;;;;25.50;74.60;;;;;;5111514;28;19908;-70
2023/06/22 11:36:15;;;;;;;;;;;25.40;74.80;;;;;;5109645;28;19961;-70
2023/06/22 11:38:41;;;;;;;;;;;25.40;75.40;;;;;;5111397;28;20292;-69
2023/06/22 11:41:07;;;;;;;;;;;25.30;75.60;;;;;;5109135;28;19908;-70
2023/06/22 11:43:33;;;;;;;;;;;25.30;75.90;;;;;;5111320;28;20443;-70
2023/06/22 11:45:59;;;;;;;;;;;25.20;76.00;;;;;;5110435;28;19919;-67
2023/06/22 11:48:25;;;;;;;;;;;25.20;76.20;;;;;;5109819;28;19907;-67
2023/06/22 11:50:50;;;;;;;;;;;25.10;77.00;;;;;;5114848;27;19911;-67
2023/06/22 11:53:17;;;;;;;;;;;25.10;77.20;;;;;;5111018;28;19912;-67
2023/06/22 11:55:43;;;;;;;;;;;25.10;77.10;;;;;;5110146;28;19912;-67
2023/06/22 11:58:08;;;;;;;;;;;25.00;77.20;;;;;;5109529;28;19961;-67
2023/06/22 12:00:34;;;;;;;;;;;24.90;77.00;;;;;;5110650;28;20489;-67
2023/06/22 12:03:00;;;;;;;;;;;24.90;77.70;;;;;;5110972;28;19911;-67
2023/06/22 12:05:25;;;;;;;;;;;24.80;78.30;;;;;;5110263;28;20280;-67
2023/06/22 12:07:52;;;;;;;;;;;24.80;78.30;;;;;;5110749;28;20299;-67
2023/06/22 12:10:18;;;;;;;;;;;24.80;77.30;;;;;;5110684;28;20486;-67
2023/06/22 12:12:44;;;;;;;;;;;24.70;77.00;;;;;;5110626;28;19908;-67
2023/06/22 12:15:10;;;;;;;;;;;24.70;77.00;;;;;;5110372;28;20242;-67
2023/06/22 12:17:35;;;;;;;;;;;24.70;76.80;;;;;;5110163;28;19916;-67
2023/06/22 12:20:02;;;;;;;;;;;24.70;76.80;;;;;;5102278;27;19965;-67
2023/06/22 12:22:27;;;;;;;;;;;24.70;76.10;;;;;;5116197;27;19973;-67
2023/06/22 12:24:53;;;;;;;;;;;24.70;75.80;;;;;;5108012;27;19947;-67
2023/06/22 12:27:19;;;;;;;;;;;24.60;76.50;;;;;;5117931;27;20441;-68
2023/06/22 12:29:47;;;;;;;;;;;24.60;77.40;;;;;;5123018;27;19915;-68
2023/06/22 12:32:13;;;;;;;;;;;24.60;77.70;;;;;;5125883;27;20368;-68
2023/06/22 12:34:39;;;;;;;;;;;24.60;77.90;;;;;;5122160;27;19915;-68
2023/06/22 12:37:05;;;;;;;;;;;24.50;77.30;;;;;;5119588;27;19911;-68
2023/06/22 12:39:31;;;;;;;;;;;24.50;77.20;;;;;;5108638;27;19940;-68
2023/06/22 12:41:57;;;;;;;;;;;24.50;77.30;;;;;;5109120;27;19954;-68
2023/06/22 12:44:22;;;;;;;;;;;24.50;77.20;;;;;;5109775;28;19955;-67
2023/06/22 12:46:48;;;;;;;;;;;24.50;77.30;;;;;;5108093;28;19973;-68
2023/06/22 12:49:13;;;;;;;;;;;24.40;77.60;;;;;;5109757;28;19912;-68
2023/06/22 12:51:41;;;;;;;;;;;24.40;77.30;;;;;;5108450;28;19915;-68
2023/06/22 12:54:06;;;;;;;;;;;24.40;77.60;;;;;;5109753;28;19912;-68
2023/06/22 12:56:32;;;;;;;;;;;24.40;77.80;;;;;;5109149;28;19919;-67
2023/06/22 12:58:58;;;;;;;;;;;24.40;77.90;;;;;;5109808;28;20335;-67
2023/06/22 13:01:24;;;;;;;;;;;24.40;77.80;;;;;;5108148;28;19911;-67
2023/06/22 13:03:49;;;;;;;;;;;24.40;77.80;;;;;;5109632;28;19918;-68
2023/06/22 13:06:15;;;;;;;;;;;24.40;78.00;;;;;;5108353;28;20330;-67
2023/06/22 13:08:40;;;;;;;;;;;24.30;78.00;;;;;;5109678;28;20310;-68
2023/06/22 13:11:06;;;;;;;;;;;24.30;77.80;;;;;;5109200;27;19911;-68
2023/06/22 13:13:31;;;;;;;;;;;24.30;78.00;;;;;;5108881;28;19908;-68
2023/06/22 13:15:57;;;;;;;;;;;24.30;78.20;;;;;;5108334;28;20288;-68
2023/06/22 13:18:22;;;;;;;;;;;24.40;78.20;;;;;;5108603;28;19965;-68
2023/06/22 13:20:48;;;;;;;;;;;24.40;78.20;;;;;;5108174;28;19916;-68
2023/06/22 13:23:13;;;;;;;;;;;24.50;78.20;;;;;;5108401;28;19924;-68
2023/06/22 13:25:40;;;;;;;;;;;24.50;79.20;;;;;;5107329;28;20403;-68
2023/06/22 13:28:06;;;;;;;;;;;24.50;78.70;;;;;;5108444;28;20717;-68
2023/06/22 13:30:32;;;;;;;;;;;24.50;78.60;;;;;;5108232;28;19915;-68
2023/06/22 13:32:57;;;;;;;;;;;24.50;78.60;;;;;;5088145;28;20444;-68
2023/06/22 13:35:23;;;;;;;;;;;24.50;78.60;;;;;;5087647;28;19958;-68
2023/06/22 13:37:48;;;;;;;;;;;24.50;78.80;;;;;;5087947;28;19916;-68
2023/06/22 13:40:14;;;;;;;;;;;24.60;78.70;;;;;;5098972;28;20062;-68
2023/06/22 13:42:40;;;;;;;;;;;24.60;78.40;;;;;;5107962;28;19923;-68
2023/06/22 13:45:06;;;;;;;;;;;24.50;78.20;;;;;;5107329;28;20536;-68
2023/06/22 13:47:31;;;;;;;;;;;24.50;78.50;;;;;;5107982;28;20364;-68
2023/06/22 13:49:57;;;;;;;;;;;24.60;78.60;;;;;;5108341;28;20004;-68
2023/06/22 13:52:23;;;;;;;;;;;24.50;79.10;;;;;;5111931;28;20530;-68
2023/06/22 13:54:49;;;;;;;;;;;24.60;79.40;;;;;;5107987;28;19916;-67
2023/06/22 13:57:14;;;;;;;;;;;24.60;79.50;;;;;;5107909;28;20345;-68
2023/06/22 13:59:40;;;;;;;;;;;24.60;79.60;;;;;;5107931;28;19912;-68
2023/06/22 14:02:06;;;;;;;;;;;24.60;79.70;;;;;;5106531;28;19915;-68
2023/06/22 14:04:31;;;;;;;;;;;24.60;79.20;;;;;;5108020;28;19920;-68
2023/06/22 14:06:57;;;;;;;;;;;24.70;79.50;;;;;;5107718;28;19959;-68
2023/06/22 14:09:22;;;;;;;;;;;24.70;79.50;;;;;;5107868;28;19919;-68
2023/06/22 14:11:48;;;;;;;;;;;24.70;79.80;;;;;;5108186;28;19976;-68